Time;durP1;ratioP1;P1;durP2;ratioP2;P2;SDS_P1;SDS_P2;PMS_P1;PMS_P2;Temp;Humidity;BMP_temperature;BMP_pressure;BME280_temperature;BME280_humidity;BME280_pressure;Samples;Min_cycle;Max_cycle;Signal;HPM_P1;HPM_P2
2022/03/17 00:00:59;;;;;;;40.33;29.20;;;8.00;99.90;;;;;;4990268;28;20110;-50
2022/03/17 00:03:43;;;;;;;38.97;29.77;;;8.00;99.90;;;;;;4994615;28;20092;-50
2022/03/17 00:06:28;;;;;;;40.53;29.73;;;7.90;99.90;;;;;;4995052;28;20094;-53
2022/03/17 00:09:12;;;;;;;39.97;29.60;;;7.90;99.90;;;;;;4991458;28;20041;-50
2022/03/17 00:11:57;;;;;;;37.72;28.95;;;7.90;99.90;;;;;;4990473;28;20065;-51
2022/03/17 00:14:41;;;;;;;;;;;7.90;99.90;;;;;;4992629;28;20040;-52
2022/03/17 00:17:26;;;;;;;36.95;28.70;;;7.90;99.90;;;;;;4993854;28;20037;-48
2022/03/17 00:20:11;;;;;;;40.28;30.60;;;7.90;99.90;;;;;;4994851;28;20085;-50
2022/03/17 00:22:55;;;;;;;33.65;25.65;;;7.80;99.90;;;;;;4991642;28;20089;-55
2022/03/17 00:25:40;;;;;;;37.70;27.48;;;7.80;99.90;;;;;;4992764;28;20133;-56
2022/03/17 00:28:24;;;;;;;;;;;8.20;99.90;;;;;;5007531;28;20097;-55
2022/03/17 00:31:09;;;;;;;35.35;26.75;;;8.30;99.90;;;;;;4990543;28;19925;-56
2022/03/17 00:33:53;;;;;;;37.17;28.63;;;8.60;99.90;;;;;;4990052;28;20042;-55
2022/03/17 00:36:37;;;;;;;37.05;28.02;;;8.70;99.90;;;;;;4990089;28;20430;-56
2022/03/17 00:39:21;;;;;;;37.92;29.00;;;8.90;99.90;;;;;;4994284;28;20047;-58
2022/03/17 00:42:05;;;;;;;37.42;26.83;;;9.20;99.90;;;;;;4991840;28;20166;-55
2022/03/17 00:44:50;;;;;;;35.22;26.45;;;9.30;99.90;;;;;;4991655;28;20041;-55
2022/03/17 00:47:34;;;;;;;36.95;29.10;;;9.50;99.90;;;;;;4992425;28;20096;-52
2022/03/17 00:50:18;;;;;;;38.40;31.20;;;9.30;99.90;;;;;;4985315;28;20084;-56
2022/03/17 00:53:04;;;;;;;41.13;30.97;;;9.10;99.90;;;;;;4991135;28;20586;-55
2022/03/17 00:55:48;;;;;;;43.40;29.98;;;8.70;99.90;;;;;;4991187;28;20113;-55
2022/03/17 00:58:32;;;;;;;39.33;30.88;;;8.40;99.90;;;;;;4994269;28;20041;-53
2022/03/17 01:01:16;;;;;;;41.72;31.00;;;8.20;99.90;;;;;;4991815;28;20057;-51
2022/03/17 01:04:01;;;;;;;41.30;31.02;;;8.10;99.90;;;;;;4992751;28;20153;-55
2022/03/17 01:06:45;;;;;;;40.38;30.25;;;8.00;99.90;;;;;;4994222;28;20041;-58
2022/03/17 01:09:30;;;;;;;40.80;31.63;;;7.90;99.90;;;;;;4994448;28;20042;-56
2022/03/17 01:12:14;;;;;;;42.22;31.73;;;7.80;99.90;;;;;;4990561;28;20503;-56
2022/03/17 01:14:58;;;;;;;42.83;31.15;;;7.70;99.90;;;;;;4990175;28;20097;-52
2022/03/17 01:17:43;;;;;;;41.50;32.25;;;7.70;99.90;;;;;;4989166;28;20041;-53
2022/03/17 01:20:29;;;;;;;46.60;32.10;;;7.60;99.90;;;;;;4993998;28;20042;-54
2022/03/17 01:23:13;;;;;;;41.88;31.27;;;7.60;99.90;;;;;;4992995;28;20041;-56
2022/03/17 01:25:57;;;;;;;44.20;32.53;;;7.60;99.90;;;;;;4992913;28;20041;-56
2022/03/17 01:28:42;;;;;;;46.83;34.08;;;7.60;99.90;;;;;;4994739;28;20084;-55
2022/03/17 01:31:25;;;;;;;45.17;33.10;;;7.70;99.90;;;;;;4994374;28;20647;-55
2022/03/17 01:34:10;;;;;;;43.73;32.03;;;7.80;99.90;;;;;;4993704;28;20134;-57
2022/03/17 01:36:54;;;;;;;41.50;32.17;;;7.70;99.90;;;;;;4994708;28;20104;-55
2022/03/17 01:39:38;;;;;;;44.70;33.72;;;7.80;99.90;;;;;;4991718;28;20536;-52
2022/03/17 01:42:22;;;;;;;47.05;34.13;;;7.70;99.90;;;;;;4993677;28;20715;-54
2022/03/17 01:45:08;;;;;;;41.38;31.52;;;7.70;99.90;;;;;;4993235;28;20088;-56
2022/03/17 01:47:52;;;;;;;43.05;33.10;;;7.60;99.90;;;;;;4993929;28;20390;-56
2022/03/17 01:50:37;;;;;;;45.05;33.20;;;7.60;99.90;;;;;;4992240;28;20050;-54
2022/03/17 01:53:25;;;;;;;42.40;32.17;;;7.60;99.90;;;;;;4988941;28;20462;-53
2022/03/17 01:56:09;;;;;;;45.83;33.63;;;7.60;99.90;;;;;;4990146;28;20102;-56
2022/03/17 01:58:53;;;;;;;46.43;34.33;;;7.60;99.90;;;;;;4989720;28;20077;-56
2022/03/17 02:01:38;;;;;;;44.20;32.63;;;7.60;99.90;;;;;;4994873;28;20449;-53
2022/03/17 02:04:24;;;;;;;44.47;33.35;;;7.50;99.90;;;;;;4994539;28;20090;-51
2022/03/17 02:07:11;;;;;;;43.58;33.53;;;7.50;99.90;;;;;;4994038;28;20061;-55
2022/03/17 02:09:55;;;;;;;43.53;32.45;;;7.40;99.90;;;;;;4992148;28;20488;-54
2022/03/17 02:15:43;;;;;;;45.50;33.53;;;7.50;99.90;;;;;;4992745;28;20033;-54
2022/03/17 02:18:28;;;;;;;45.83;33.03;;;7.50;99.90;;;;;;4992879;28;20072;-54
2022/03/17 02:21:12;;;;;;;;;;;7.50;99.90;;;;;;4993908;28;20033;-54
2022/03/17 02:27:01;;;;;;;48.63;35.40;;;7.20;99.90;;;;;;4992139;28;20037;-55
2022/03/17 02:29:46;;;;;;;48.88;34.33;;;7.20;99.90;;;;;;4991351;28;20081;-55
2022/03/17 02:32:30;;;;;;;48.57;35.67;;;7.20;99.90;;;;;;4990728;28;20443;-55
2022/03/17 02:35:20;;;;;;;48.45;36.03;;;7.20;99.90;;;;;;4993524;28;20276;-51
2022/03/17 02:38:06;;;;;;;47.50;35.03;;;7.20;99.90;;;;;;4992665;28;20410;-55
2022/03/17 02:40:52;;;;;;;48.25;35.08;;;7.30;99.90;;;;;;4990873;28;20062;-56
2022/03/17 02:43:38;;;;;;;51.38;35.15;;;7.20;99.90;;;;;;4990237;28;20033;-53
2022/03/17 02:46:22;;;;;;;46.03;34.55;;;7.20;99.90;;;;;;4990776;28;20049;-54
2022/03/17 02:49:06;;;;;;;47.17;35.28;;;7.30;99.90;;;;;;4992267;28;20041;-55
2022/03/17 02:51:50;;;;;;;47.78;34.88;;;7.30;99.90;;;;;;4992783;28;20145;-55
2022/03/17 02:54:34;;;;;;;48.35;33.83;;;7.30;99.90;;;;;;4992909;28;20038;-54
2022/03/17 02:57:19;;;;;;;47.63;34.93;;;7.30;99.90;;;;;;4990272;28;20045;-53
2022/03/17 03:00:06;;;;;;;50.53;36.67;;;7.30;99.90;;;;;;4992947;28;20038;-53
2022/03/17 03:02:50;;;;;;;45.00;35.13;;;7.10;99.90;;;;;;4991251;28;20089;-51
2022/03/17 03:05:35;;;;;;;55.60;37.20;;;7.00;99.90;;;;;;4992798;28;20713;-50
2022/03/17 03:08:19;;;;;;;48.38;35.83;;;6.90;99.90;;;;;;4992928;28;20040;-56
2022/03/17 03:11:03;;;;;;;47.50;34.60;;;6.90;99.90;;;;;;4991212;28;20073;-51
2022/03/17 03:13:47;;;;;;;45.85;34.40;;;7.00;99.90;;;;;;4991838;28;20048;-57
2022/03/17 03:16:31;;;;;;;49.95;36.33;;;7.10;99.90;;;;;;4992583;28;20118;-55
2022/03/17 03:19:15;;;;;;;53.45;37.28;;;7.20;99.90;;;;;;4990112;28;20045;-52
2022/03/17 03:22:01;;;;;;;46.27;35.17;;;7.20;99.90;;;;;;4990935;28;20564;-57
2022/03/17 03:24:45;;;;;;;;;;;7.20;99.90;;;;;;4992445;28;20076;-50
2022/03/17 03:27:29;;;;;;;52.22;36.13;;;7.20;99.90;;;;;;4991840;28;20084;-50
2022/03/17 03:30:14;;;;;;;49.83;35.80;;;7.20;99.90;;;;;;4992819;28;20313;-53
2022/03/17 03:32:59;;;;;;;53.05;37.58;;;7.20;99.90;;;;;;4989385;28;20092;-49
2022/03/17 03:38:46;;;;;;;54.72;36.97;;;7.10;99.90;;;;;;4992222;28;20073;-55
2022/03/17 03:41:30;;;;;;;57.00;38.22;;;7.10;99.90;;;;;;4988963;28;20391;-54
2022/03/17 03:44:15;;;;;;;54.45;37.65;;;7.00;99.90;;;;;;4991723;28;20414;-57
2022/03/17 03:47:00;;;;;;;53.38;38.45;;;7.00;99.90;;;;;;4989626;28;20093;-52
2022/03/17 03:49:44;;;;;;;51.78;38.15;;;7.00;99.90;;;;;;4991821;28;20057;-51
2022/03/17 03:52:28;;;;;;;51.15;37.58;;;7.10;99.90;;;;;;5003546;28;20046;-56
2022/03/17 03:55:12;;;;;;;49.58;36.55;;;7.10;99.90;;;;;;4993284;28;20130;-49
2022/03/17 03:57:59;;;;;;;52.67;38.03;;;7.20;99.90;;;;;;4979523;28;20468;-55
2022/03/17 04:00:44;;;;;;;51.95;38.03;;;7.20;99.90;;;;;;4991596;28;20080;-55
2022/03/17 04:03:28;;;;;;;55.38;36.78;;;7.30;99.90;;;;;;4992236;28;20065;-54
2022/03/17 04:06:14;;;;;;;51.25;38.60;;;7.20;99.90;;;;;;4993023;28;20093;-51
2022/03/17 04:08:59;;;;;;;51.78;37.88;;;7.20;99.90;;;;;;4992782;28;20081;-56
2022/03/17 04:11:44;;;;;;;;;;;7.20;99.90;;;;;;4992264;28;20096;-53
2022/03/17 04:14:28;;;;;;;52.35;37.22;;;7.10;99.90;;;;;;4991748;28;19956;-52
2022/03/17 04:17:13;;;;;;;56.95;39.05;;;7.00;99.90;;;;;;4990527;28;20461;-52
2022/03/17 04:19:57;;;;;;;54.75;40.88;;;7.10;99.90;;;;;;4987807;28;20462;-51
2022/03/17 04:22:41;;;;;;;53.80;38.67;;;7.10;99.90;;;;;;4987695;28;20409;-48
2022/03/17 04:25:25;;;;;;;54.38;38.58;;;7.20;99.90;;;;;;4991882;28;20517;-50
2022/03/17 04:28:09;;;;;;;59.03;40.35;;;7.20;99.90;;;;;;4992086;28;20060;-54
2022/03/17 04:30:53;;;;;;;56.00;39.08;;;7.20;99.90;;;;;;4991791;28;20088;-56
2022/03/17 04:33:37;;;;;;;57.13;40.07;;;7.20;99.90;;;;;;4991311;28;20390;-53
2022/03/17 04:36:22;;;;;;;58.53;40.38;;;7.20;99.90;;;;;;4993298;28;20045;-51
2022/03/17 04:39:10;;;;;;;50.38;37.65;;;7.30;99.90;;;;;;4993090;28;20041;-58
2022/03/17 04:41:54;;;;;;;58.55;38.25;;;7.30;99.90;;;;;;4993661;28;20402;-56
2022/03/17 04:44:38;;;;;;;58.35;39.88;;;7.30;99.90;;;;;;5008910;28;20038;-47
2022/03/17 04:47:22;;;;;;;64.53;41.70;;;7.30;99.90;;;;;;4995762;28;20060;-52
2022/03/17 04:50:07;;;;;;;68.90;41.72;;;7.30;99.90;;;;;;4995660;28;20101;-52
2022/03/17 04:55:55;;;;;;;70.57;40.13;;;7.30;99.90;;;;;;4995305;28;20390;-51
2022/03/17 04:58:41;;;;;;;66.88;41.72;;;7.30;99.90;;;;;;4994791;28;20442;-52
2022/03/17 05:01:25;;;;;;;60.22;40.75;;;7.40;99.90;;;;;;4995255;28;20041;-52
2022/03/17 05:04:09;;;;;;;62.05;40.00;;;7.40;99.90;;;;;;4994728;28;20061;-54
2022/03/17 05:06:54;;;;;;;52.35;38.10;;;7.40;99.90;;;;;;4995464;28;20034;-56
2022/03/17 05:09:38;;;;;;;60.15;38.70;;;7.40;99.90;;;;;;4995365;28;20062;-55
2022/03/17 05:12:22;;;;;;;55.10;39.40;;;7.40;99.90;;;;;;4995002;28;20049;-56
2022/03/17 05:15:06;;;;;;;52.93;39.43;;;7.40;99.90;;;;;;4995343;28;20505;-56
2022/03/17 05:17:51;;;;;;;52.50;38.50;;;7.40;99.90;;;;;;4993245;28;20453;-53
2022/03/17 05:20:36;;;;;;;55.58;39.05;;;7.50;99.90;;;;;;4982978;28;20510;-50
2022/03/17 05:23:21;;;;;;;53.25;38.60;;;7.40;99.90;;;;;;4989543;28;20130;-53
2022/03/17 05:26:08;;;;;;;;;;;7.40;99.90;;;;;;4986765;28;20406;-54
2022/03/17 05:28:52;;;;;;;63.22;39.85;;;7.40;99.90;;;;;;4994721;28;19925;-58
2022/03/17 05:31:36;;;;;;;58.22;39.47;;;7.40;99.90;;;;;;4994108;28;20041;-57
2022/03/17 05:34:20;;;;;;;54.50;40.00;;;7.40;99.90;;;;;;4992571;28;20042;-55
2022/03/17 05:37:05;;;;;;;64.53;41.45;;;7.30;99.90;;;;;;4992035;28;20040;-58
2022/03/17 05:39:49;;;;;;;73.23;42.20;;;7.30;99.90;;;;;;4994906;28;20510;-55
2022/03/17 05:42:33;;;;;;;65.07;40.83;;;7.40;99.90;;;;;;4993911;28;20041;-56
2022/03/17 05:45:18;;;;;;;85.38;43.28;;;7.30;99.90;;;;;;4989880;28;20045;-50
2022/03/17 05:48:04;;;;;;;66.60;39.78;;;7.40;99.90;;;;;;4994608;28;20528;-51
2022/03/17 05:50:49;;;;;;;73.82;40.97;;;7.40;99.90;;;;;;4976443;28;20037;-48
2022/03/17 05:53:33;;;;;;;61.80;38.45;;;7.40;99.90;;;;;;4976281;28;20081;-50
2022/03/17 05:56:16;;;;;;;60.92;41.25;;;7.40;99.90;;;;;;5007729;28;20085;-52
2022/03/17 05:59:01;;;;;;;61.23;42.30;;;7.30;99.90;;;;;;5005507;28;20045;-52
2022/03/17 06:01:44;;;;;;;59.83;39.97;;;7.30;99.90;;;;;;4985226;28;20057;-52
2022/03/17 06:04:29;;;;;;;54.17;40.40;;;7.20;99.90;;;;;;4994455;28;20426;-54
2022/03/17 06:07:13;;;;;;;64.72;40.45;;;7.20;99.90;;;;;;4995228;28;20469;-52
2022/03/17 06:09:57;;;;;;;64.88;41.75;;;7.20;99.90;;;;;;4994602;28;20045;-50
2022/03/17 06:12:43;;;;;;;63.47;41.90;;;7.30;99.90;;;;;;4994291;28;20067;-57
2022/03/17 06:15:32;;;;;;;54.35;37.55;;;7.30;99.90;;;;;;4984992;28;20069;-53
2022/03/17 06:18:16;;;;;;;53.17;38.30;;;7.30;99.90;;;;;;4994553;28;20548;-53
2022/03/17 06:21:00;;;;;;;57.90;39.80;;;7.40;99.90;;;;;;4994151;28;20085;-55
2022/03/17 06:23:45;;;;;;;59.75;39.72;;;7.40;99.90;;;;;;4993987;28;20088;-50
2022/03/17 06:26:29;;;;;;;55.22;39.33;;;7.40;99.90;;;;;;5008107;28;20053;-56
2022/03/17 06:29:13;;;;;;;52.97;40.33;;;7.40;99.90;;;;;;5001344;28;20085;-54
2022/03/17 06:31:57;;;;;;;64.90;42.88;;;7.50;99.90;;;;;;5003143;28;20057;-54
2022/03/17 06:34:41;;;;;;;84.60;42.97;;;7.50;99.90;;;;;;4983848;28;20502;-53
2022/03/17 06:37:25;;;;;;;60.15;42.67;;;7.50;99.90;;;;;;4992589;28;20041;-52
2022/03/17 06:40:11;;;;;;;81.35;52.50;;;7.50;99.90;;;;;;5005810;28;20513;-49
2022/03/17 06:42:55;;;;;;;;;;;7.50;99.90;;;;;;4983068;28;20060;-54
2022/03/17 06:45:39;;;;;;;84.05;47.40;;;7.50;99.90;;;;;;4992854;28;20350;-55
2022/03/17 06:48:23;;;;;;;78.93;46.42;;;7.60;99.90;;;;;;4985672;28;20451;-55
2022/03/17 06:51:07;;;;;;;76.03;44.58;;;7.50;99.90;;;;;;4987935;28;20042;-54
2022/03/17 06:53:52;;;;;;;68.40;44.72;;;7.60;99.90;;;;;;4991289;28;20544;-50
2022/03/17 06:56:36;;;;;;;64.97;44.63;;;7.60;99.90;;;;;;4993430;28;20541;-50
2022/03/17 06:59:21;;;;;;;66.90;42.88;;;7.60;99.90;;;;;;5008144;28;20078;-55
2022/03/17 07:02:05;;;;;;;;;;;7.70;99.90;;;;;;4995045;28;20114;-53
2022/03/17 07:04:49;;;;;;;63.38;44.30;;;7.70;99.90;;;;;;4993540;28;20336;-51
2022/03/17 07:07:34;;;;;;;62.67;43.97;;;7.70;99.90;;;;;;4993683;28;20026;-58
2022/03/17 07:10:18;;;;;;;61.03;43.28;;;7.70;99.90;;;;;;4983042;28;20161;-52
2022/03/17 07:13:02;;;;;;;65.35;43.20;;;7.80;99.90;;;;;;4999124;28;20053;-56
2022/03/17 07:15:46;;;;;;;69.20;47.30;;;7.70;99.90;;;;;;4990697;28;20037;-51
2022/03/17 07:18:30;;;;;;;68.82;44.70;;;7.70;99.90;;;;;;4981129;28;20049;-55
2022/03/17 07:21:14;;;;;;;65.20;48.00;;;7.80;99.90;;;;;;4992468;28;20104;-57
2022/03/17 07:23:59;;;;;;;66.10;47.90;;;7.80;99.90;;;;;;4991831;28;20210;-53
2022/03/17 07:26:43;;;;;;;;;;;7.80;99.90;;;;;;4993302;28;20044;-53
2022/03/17 07:29:31;;;;;;;80.90;52.28;;;7.80;99.90;;;;;;4991701;28;19983;-54
2022/03/17 07:32:15;;;;;;;82.53;54.97;;;7.80;99.90;;;;;;4989782;28;20049;-56
2022/03/17 07:34:59;;;;;;;69.47;49.40;;;7.80;99.90;;;;;;4986097;28;20046;-55
2022/03/17 07:37:43;;;;;;;75.43;49.17;;;7.70;99.90;;;;;;4991043;28;20538;-52
2022/03/17 07:40:28;;;;;;;66.63;47.00;;;7.60;99.90;;;;;;4982094;28;20433;-55
2022/03/17 07:43:12;;;;;;;73.10;49.28;;;7.70;99.90;;;;;;5002514;28;20041;-51
2022/03/17 07:45:56;;;;;;;66.25;46.83;;;7.80;99.90;;;;;;4981682;28;20367;-49
2022/03/17 07:48:41;;;;;;;68.85;47.58;;;8.00;99.90;;;;;;4987813;28;20104;-55
2022/03/17 07:51:25;;;;;;;92.22;50.17;;;8.00;99.90;;;;;;4987104;28;20132;-49
2022/03/17 07:54:09;;;;;;;64.50;47.05;;;8.10;99.90;;;;;;5003305;28;20110;-53
2022/03/17 07:56:54;;;;;;;62.40;44.75;;;8.20;99.90;;;;;;4990541;28;20405;-49
2022/03/17 07:59:39;;;;;;;68.38;47.15;;;8.40;99.90;;;;;;4981506;28;20089;-52
2022/03/17 08:02:23;;;;;;;64.25;44.90;;;8.50;99.90;;;;;;4989414;28;20069;-49
2022/03/17 08:05:08;;;;;;;65.90;48.00;;;8.50;99.90;;;;;;4984894;28;20041;-50
2022/03/17 08:07:53;;;;;;;64.88;48.67;;;8.60;99.90;;;;;;5008253;28;20463;-53
2022/03/17 08:10:37;;;;;;;69.32;48.05;;;8.70;99.90;;;;;;4985722;28;20033;-51
2022/03/17 08:13:22;;;;;;;64.27;46.40;;;8.70;99.90;;;;;;4989089;28;20540;-52
2022/03/17 08:16:06;;;;;;;;;;;8.80;99.90;;;;;;4993678;28;20073;-55
2022/03/17 08:18:50;;;;;;;73.22;45.67;;;8.90;99.90;;;;;;4993703;28;20444;-59
2022/03/17 08:21:34;;;;;;;82.07;47.00;;;9.00;99.90;;;;;;4984940;28;20510;-49
2022/03/17 08:24:19;;;;;;;70.70;46.33;;;9.00;99.90;;;;;;4994087;28;20116;-52
2022/03/17 08:27:04;;;;;;;63.85;45.70;;;9.10;99.90;;;;;;4992872;28;20101;-51
2022/03/17 08:29:48;;;;;;;71.55;47.40;;;9.20;99.90;;;;;;4997447;28;20569;-55
2022/03/17 08:32:32;;;;;;;60.83;45.50;;;9.20;99.90;;;;;;4992795;28;20085;-56
2022/03/17 08:35:17;;;;;;;93.50;49.45;;;9.30;99.90;;;;;;4994373;28;20037;-52
2022/03/17 08:38:02;;;;;;;66.80;45.70;;;9.30;99.90;;;;;;4991734;28;20052;-51
2022/03/17 08:40:46;;;;;;;63.70;47.10;;;9.30;99.90;;;;;;4992270;28;20053;-50
2022/03/17 08:43:30;;;;;;;70.75;46.63;;;9.30;99.90;;;;;;4992722;28;20331;-51
2022/03/17 08:49:21;;;;;;;78.05;49.80;;;9.30;99.90;;;;;;4991443;28;20037;-53
2022/03/17 08:52:07;;;;;;;80.88;53.65;;;9.30;99.90;;;;;;4988573;28;20564;-54
2022/03/17 08:54:51;;;;;;;71.80;48.63;;;9.30;99.90;;;;;;4990109;28;20033;-58
2022/03/17 08:57:35;;;;;;;68.80;47.37;;;9.20;99.90;;;;;;5005317;28;20578;-55
2022/03/17 09:00:19;;;;;;;70.07;48.33;;;9.30;99.90;;;;;;4992480;28;20061;-56
2022/03/17 09:03:04;;;;;;;72.05;50.63;;;9.30;99.90;;;;;;4990904;28;20703;-55
2022/03/17 09:05:48;;;;;;;68.00;48.60;;;9.30;99.90;;;;;;4992157;28;20029;-54
2022/03/17 09:08:33;;;;;;;65.53;47.07;;;9.20;99.90;;;;;;4992895;28;20157;-55
2022/03/17 09:11:17;;;;;;;63.70;45.47;;;9.30;99.90;;;;;;4993203;28;20084;-54
2022/03/17 09:14:02;;;;;;;65.65;48.55;;;9.50;99.90;;;;;;4992972;28;20116;-51
2022/03/17 09:16:46;;;;;;;62.80;43.22;;;9.60;99.90;;;;;;4990384;28;20076;-56
2022/03/17 09:19:32;;;;;;;61.08;44.00;;;9.80;99.90;;;;;;4991004;28;20404;-56
2022/03/17 09:22:16;;;;;;;56.03;42.65;;;10.00;99.90;;;;;;4991650;28;20028;-56
2022/03/17 09:25:00;;;;;;;63.22;43.25;;;10.40;99.90;;;;;;4992040;28;20073;-59
2022/03/17 09:27:44;;;;;;;63.60;41.38;;;10.60;99.90;;;;;;4991909;28;20073;-58
2022/03/17 09:30:29;;;;;;;57.97;41.65;;;10.90;99.90;;;;;;4993012;28;20069;-56
2022/03/17 09:33:13;;;;;;;59.13;43.22;;;11.10;99.90;;;;;;4986950;28;20074;-51
2022/03/17 09:35:57;;;;;;;58.47;43.72;;;11.20;99.90;;;;;;4993759;28;20054;-54
2022/03/17 09:38:41;;;;;;;58.77;45.47;;;11.20;98.70;;;;;;4992786;28;20505;-54
2022/03/17 09:41:32;;;;;;;60.15;44.78;;;11.30;99.90;;;;;;4993529;28;20324;-54
2022/03/17 09:44:16;;;;;;;56.63;43.05;;;11.50;99.10;;;;;;4992067;28;20045;-57
2022/03/17 09:47:03;;;;;;;65.40;46.45;;;11.70;99.40;;;;;;4991957;28;20037;-56
2022/03/17 09:49:49;;;;;;;61.67;45.88;;;11.80;99.20;;;;;;4986107;28;20041;-55
2022/03/17 09:52:41;;;;;;;74.72;48.72;;;11.90;99.10;;;;;;5001696;28;20037;-53
2022/03/17 09:55:26;;;;;;;71.22;47.05;;;12.00;98.00;;;;;;4987726;28;20061;-54
2022/03/17 09:58:11;;;;;;;64.45;45.80;;;12.00;97.50;;;;;;4989833;28;20030;-56
2022/03/17 10:00:55;;;;;;;64.38;46.35;;;11.70;97.50;;;;;;4992129;28;20445;-56
2022/03/17 10:03:39;;;;;;;63.70;46.83;;;11.60;97.20;;;;;;4993554;28;20513;-56
2022/03/17 10:06:24;;;;;;;60.85;46.53;;;11.60;97.60;;;;;;4992490;28;20304;-55
2022/03/17 10:09:08;;;;;;;65.40;47.40;;;11.50;97.90;;;;;;4992484;28;20093;-54
2022/03/17 10:12:08;;;;;;;61.07;46.97;;;11.50;97.60;;;;;;4984779;28;20073;-56
2022/03/17 10:14:53;;;;;;;63.63;47.03;;;11.40;97.70;;;;;;4991813;28;20033;-56
2022/03/17 10:17:41;;;;;;;62.85;44.78;;;11.40;97.90;;;;;;4994109;28;20030;-55
2022/03/17 10:20:26;;;;;;;56.05;43.95;;;11.30;97.80;;;;;;4994829;28;20076;-54
2022/03/17 10:23:11;;;;;;;53.75;44.72;;;11.50;97.90;;;;;;4989375;28;20045;-54
2022/03/17 10:25:56;;;;;;;61.97;46.05;;;11.60;97.60;;;;;;4988861;28;20029;-52
2022/03/17 10:28:40;;;;;;;;;;;11.80;97.20;;;;;;4994456;28;20069;-57
2022/03/17 10:31:24;;;;;;;75.53;48.28;;;11.80;96.70;;;;;;4993679;28;20397;-52
2022/03/17 10:34:09;;;;;;;63.85;46.88;;;11.80;96.80;;;;;;4992482;28;20037;-54
2022/03/17 10:37:08;;;;;;;70.30;50.95;;;11.90;96.70;;;;;;4993071;28;20108;-51
2022/03/17 10:39:58;;;;;;;61.45;48.55;;;12.00;96.50;;;;;;4993645;28;20045;-52
2022/03/17 10:42:42;;;;;;;64.40;48.33;;;11.90;96.50;;;;;;4992842;28;20127;-55
2022/03/17 10:45:28;;;;;;;58.30;46.57;;;12.00;96.40;;;;;;4993275;28;20030;-57
2022/03/17 10:48:12;;;;;;;65.90;47.88;;;11.70;96.80;;;;;;4993088;28;20037;-55
2022/03/17 10:50:57;;;;;;;68.90;47.78;;;11.80;96.90;;;;;;4993026;28;20114;-55
2022/03/17 10:53:41;;;;;;;62.17;47.60;;;11.90;96.80;;;;;;4992851;28;20049;-57
2022/03/17 10:56:25;;;;;;;60.23;47.50;;;11.90;96.50;;;;;;4992903;28;20046;-52
2022/03/17 10:59:09;;;;;;;62.42;47.50;;;12.10;96.40;;;;;;5005944;28;20053;-51
2022/03/17 11:01:55;;;;;;;62.10;48.20;;;12.20;96.00;;;;;;4993326;28;20045;-53
2022/03/17 11:04:41;;;;;;;63.30;48.90;;;12.20;96.10;;;;;;4993597;28;20088;-57
2022/03/17 11:07:25;;;;;;;61.70;47.28;;;12.20;95.80;;;;;;4993426;28;20117;-56
2022/03/17 11:10:09;;;;;;;58.83;47.27;;;12.10;95.80;;;;;;5006314;28;20118;-57
2022/03/17 11:12:55;;;;;;;57.47;46.05;;;12.20;95.80;;;;;;4990435;28;20064;-56
2022/03/17 11:15:43;;;;;;;65.18;47.72;;;12.30;95.70;;;;;;4991744;28;20122;-55
2022/03/17 11:18:33;;;;;;;61.95;47.40;;;12.30;95.30;;;;;;4992271;28;20068;-56
2022/03/17 11:21:25;;;;;;;69.35;47.70;;;12.30;95.00;;;;;;4992149;28;20130;-54
2022/03/17 11:24:18;;;;;;;59.15;46.45;;;12.30;94.80;;;;;;5004679;28;20129;-54
2022/03/17 11:27:10;;;;;;;63.22;48.45;;;12.20;95.30;;;;;;4973001;28;20525;-58
2022/03/17 11:29:57;;;;;;;67.03;47.67;;;12.30;95.00;;;;;;4978227;28;20033;-53
2022/03/17 11:32:58;;;;;;;60.85;47.78;;;12.20;95.20;;;;;;4992107;28;20041;-55
2022/03/17 11:35:52;;;;;;;60.22;46.42;;;12.40;94.80;;;;;;4991212;28;20042;-55
2022/03/17 11:38:38;;;;;;;62.08;48.28;;;12.40;95.00;;;;;;4992527;28;20045;-56
2022/03/17 11:41:23;;;;;;;66.65;48.10;;;12.50;95.10;;;;;;4992222;28;20052;-55
2022/03/17 11:44:07;;;;;;;60.78;45.63;;;12.60;95.10;;;;;;4993859;28;20054;-50
2022/03/17 11:46:56;;;;;;;59.00;45.33;;;12.80;95.00;;;;;;4998219;28;20033;-51
2022/03/17 11:49:46;;;;;;;58.17;46.53;;;12.90;94.70;;;;;;4997047;28;20517;-55
2022/03/17 11:52:30;;;;;;;64.07;48.15;;;12.90;94.50;;;;;;4998450;28;20070;-55
2022/03/17 11:55:36;;;;;;;73.13;49.80;;;12.90;94.70;;;;;;4998602;28;20637;-55
2022/03/17 11:58:42;;;;;;;59.33;47.97;;;12.70;94.80;;;;;;4997961;28;20281;-54
2022/03/17 12:01:32;;;;;;;73.97;48.63;;;12.60;94.80;;;;;;4995228;28;20037;-56
2022/03/17 12:04:30;;;;;;;63.17;48.67;;;12.50;95.20;;;;;;5007620;28;20502;-55
2022/03/17 12:07:16;;;;;;;61.95;49.35;;;12.50;95.40;;;;;;5008903;28;20370;-55
2022/03/17 12:10:00;;;;;;;68.32;47.38;;;12.50;95.40;;;;;;4998824;28;20072;-55
2022/03/17 12:12:47;;;;;;;62.30;48.67;;;12.50;95.30;;;;;;4998831;28;20553;-54
2022/03/17 12:15:39;;;;;;;62.15;48.80;;;12.60;95.30;;;;;;5010666;28;20050;-53
2022/03/17 12:18:23;;;;;;;63.55;49.85;;;12.60;95.40;;;;;;4998843;28;20465;-49
2022/03/17 12:21:08;;;;;;;58.90;47.97;;;12.60;95.30;;;;;;4998299;28;20631;-51
2022/03/17 12:23:53;;;;;;;57.22;47.60;;;12.70;95.10;;;;;;5010762;28;20065;-51
2022/03/17 12:26:37;;;;;;;57.87;47.47;;;12.80;95.00;;;;;;4998404;28;20105;-52
2022/03/17 12:29:28;;;;;;;55.97;46.97;;;12.90;94.90;;;;;;4998727;28;20034;-54
2022/03/17 12:32:20;;;;;;;58.13;46.53;;;12.90;94.70;;;;;;5002280;28;20049;-56
2022/03/17 12:35:06;;;;;;;61.67;48.25;;;12.90;94.70;;;;;;5003296;28;20041;-53
2022/03/17 12:37:59;;;;;;;56.85;46.20;;;12.90;94.60;;;;;;4997334;28;20034;-55
2022/03/17 12:40:46;;;;;;;61.45;47.80;;;12.90;94.60;;;;;;4997265;28;20029;-55
2022/03/17 12:43:33;;;;;;;67.22;47.35;;;12.80;94.50;;;;;;4987993;28;20096;-55
2022/03/17 12:46:17;;;;;;;68.80;46.60;;;12.80;94.80;;;;;;4996692;28;20064;-56
2022/03/17 12:49:08;;;;;;;57.93;45.93;;;12.70;94.50;;;;;;4998772;28;20451;-52
2022/03/17 12:51:52;;;;;;;60.05;45.83;;;12.70;94.60;;;;;;4998231;28;20056;-54
2022/03/17 12:54:36;;;;;;;57.63;46.33;;;12.80;94.60;;;;;;4998830;28;20037;-52
2022/03/17 12:57:21;;;;;;;58.30;45.53;;;12.80;94.50;;;;;;5008363;28;20391;-54
2022/03/17 13:00:12;;;;;;;57.13;48.75;;;12.90;94.50;;;;;;4995187;28;20045;-56
2022/03/17 13:03:01;;;;;;;57.60;47.05;;;12.90;94.60;;;;;;4995562;28;20696;-56
2022/03/17 13:08:55;;;;;;;57.65;46.08;;;12.90;94.30;;;;;;5001485;28;20069;-53
2022/03/17 13:14:43;;;;;;;61.65;45.95;;;12.90;94.20;;;;;;4996363;28;20041;-53
2022/03/17 13:17:36;;;;;;;64.60;45.22;;;12.90;94.10;;;;;;4995227;28;20049;-53
2022/03/17 13:20:20;;;;;;;63.22;44.92;;;12.90;94.20;;;;;;5006041;28;20048;-50
2022/03/17 13:23:06;;;;;;;58.97;46.63;;;12.90;94.20;;;;;;4994975;28;20065;-54
2022/03/17 13:25:57;;;;;;;60.10;46.28;;;12.90;94.20;;;;;;4993446;28;20045;-52
2022/03/17 13:28:42;;;;;;;54.75;43.20;;;12.90;94.20;;;;;;4993801;28;20080;-55
2022/03/17 13:31:40;;;;;;;57.40;46.03;;;12.90;93.90;;;;;;5007441;28;20430;-53
2022/03/17 13:34:37;;;;;;;81.05;49.50;;;12.90;93.90;;;;;;5006101;28;20053;-56
2022/03/17 13:37:35;;;;;;;63.60;46.67;;;12.90;93.80;;;;;;4994222;28;20032;-54
2022/03/17 13:40:20;;;;;;;56.75;45.47;;;12.80;93.80;;;;;;4994718;28;20058;-54
2022/03/17 13:43:06;;;;;;;59.38;45.42;;;12.90;93.70;;;;;;4994225;28;20517;-56
2022/03/17 13:45:50;;;;;;;54.90;43.58;;;12.90;93.80;;;;;;4974711;28;20058;-55
2022/03/17 13:48:34;;;;;;;49.45;40.72;;;12.90;93.90;;;;;;4993689;28;20065;-55
2022/03/17 13:51:25;;;;;;;55.53;43.00;;;12.90;93.90;;;;;;4988196;28;20065;-53
2022/03/17 13:54:09;;;;;;;51.60;42.65;;;12.90;93.90;;;;;;4974690;28;20301;-55
2022/03/17 13:57:00;;;;;;;61.30;44.57;;;12.90;93.90;;;;;;4988108;28;20069;-53
2022/03/17 13:59:45;;;;;;;59.00;46.63;;;12.80;93.90;;;;;;4992070;28;20137;-53
2022/03/17 14:02:29;;;;;;;59.85;44.58;;;12.80;94.00;;;;;;4991367;28;20119;-51
2022/03/17 14:05:15;;;;;;;54.97;42.63;;;12.80;93.90;;;;;;4994453;28;20487;-52
2022/03/17 14:07:59;;;;;;;52.17;41.83;;;12.80;93.50;;;;;;4994058;28;20450;-52
2022/03/17 14:10:43;;;;;;;60.78;44.88;;;12.80;93.40;;;;;;4993631;28;20093;-51
2022/03/17 14:13:27;;;;;;;56.80;44.77;;;12.90;93.40;;;;;;4992205;28;20509;-49
2022/03/17 14:16:13;;;;;;;53.35;42.63;;;12.90;93.40;;;;;;4993270;28;20037;-53
2022/03/17 14:19:00;;;;;;;55.38;43.78;;;12.80;93.50;;;;;;4993573;28;20092;-54
2022/03/17 14:24:58;;;;;;;53.70;43.10;;;12.80;93.50;;;;;;4975743;28;20085;-54
2022/03/17 14:27:42;;;;;;;51.97;41.72;;;12.80;93.50;;;;;;4989125;28;20057;-55
2022/03/17 14:30:26;;;;;;;55.50;42.45;;;12.80;93.50;;;;;;4992150;28;20532;-52
2022/03/17 14:33:10;;;;;;;51.80;42.97;;;12.80;93.60;;;;;;4993231;28;20046;-51